Time;durP1;ratioP1;P1;durP2;ratioP2;P2;SDS_P1;SDS_P2;PMS_P1;PMS_P2;Temp;Humidity;BMP_temperature;BMP_pressure;BME280_temperature;BME280_humidity;BME280_pressure;Samples;Min_cycle;Max_cycle;Signal;HPM_P1;HPM_P2
2023/11/01 00:02:17;;;;;;;0.20;0.10;;;;;;;8.57;100.00;99008.38;4942815;28;19931;-71
2023/11/01 00:04:43;;;;;;;0.10;0.10;;;;;;;8.56;100.00;99014.94;4940821;28;20050;-74
2023/11/01 00:07:09;;;;;;;0.10;0.10;;;;;;;8.57;100.00;99002.13;4942156;28;20063;-74
2023/11/01 00:09:36;;;;;;;0.10;0.10;;;;;;;8.60;100.00;98998.84;4940939;28;20048;-73
2023/11/01 00:12:02;;;;;;;0.10;0.10;;;;;;;8.61;100.00;98993.13;4943670;28;20052;-73
2023/11/01 00:14:30;;;;;;;0.10;0.10;;;;;;;8.62;100.00;98992.03;4942068;28;20047;-73
2023/11/01 00:16:56;;;;;;;0.10;0.10;;;;;;;8.65;100.00;98972.38;4942837;28;20043;-74
2023/11/01 00:19:23;;;;;;;0.10;0.10;;;;;;;8.70;100.00;98967.97;4941593;28;20039;-74
2023/11/01 00:21:49;;;;;;;0.10;0.10;;;;;;;8.71;100.00;98958.72;4941565;28;20105;-73
2023/11/01 00:24:15;;;;;;;0.10;0.10;;;;;;;8.70;100.00;98946.19;4940744;28;20618;-73
2023/11/01 00:26:42;;;;;;;0.10;0.10;;;;;;;8.78;100.00;98954.56;4942265;28;20079;-73
2023/11/01 00:29:08;;;;;;;0.10;0.10;;;;;;;8.78;100.00;98943.66;4942726;28;20097;-73
2023/11/01 00:31:35;;;;;;;0.10;0.10;;;;;;;8.74;100.00;98939.06;4942526;28;20097;-73
2023/11/01 00:34:01;;;;;;;;;;;;;;;8.78;100.00;98951.03;4940912;29;20062;-73
2023/11/01 00:36:27;;;;;;;0.10;0.10;;;;;;;8.78;100.00;98946.38;4938480;28;19926;-74
2023/11/01 00:38:53;;;;;;;0.10;0.10;;;;;;;8.75;100.00;98944.22;4925596;29;20042;-73
2023/11/01 00:41:19;;;;;;;0.10;0.10;;;;;;;8.73;100.00;98948.34;4943001;28;20112;-73
2023/11/01 00:43:46;;;;;;;0.10;0.10;;;;;;;8.69;100.00;98937.22;4940272;28;20051;-73
2023/11/01 00:46:12;;;;;;;0.10;0.10;;;;;;;8.70;100.00;98927.09;4941302;28;20126;-73
2023/11/01 00:48:40;;;;;;;0.10;0.10;;;;;;;8.70;100.00;98921.66;4941347;28;20058;-73
2023/11/01 00:51:06;;;;;;;0.10;0.10;;;;;;;8.70;100.00;98921.66;4940255;29;20054;-72
2023/11/01 00:53:32;;;;;;;0.10;0.10;;;;;;;8.73;100.00;98923.81;4942522;29;20059;-74
2023/11/01 00:55:58;;;;;;;0.10;0.10;;;;;;;8.72;100.00;98939.34;4939306;28;20059;-73
2023/11/01 00:58:25;;;;;;;0.10;0.10;;;;;;;8.74;100.00;98939.88;4940359;28;20051;-73
2023/11/01 01:00:51;;;;;;;0.10;0.10;;;;;;;8.82;100.00;98916.66;4923994;29;20062;-73
2023/11/01 01:03:17;;;;;;;0.10;0.10;;;;;;;8.85;100.00;98915.28;4926237;29;20138;-73
2023/11/01 01:05:44;;;;;;;0.10;0.10;;;;;;;8.87;100.00;98910.34;4939096;28;20058;-74
2023/11/01 01:08:10;;;;;;;;;;;;;;;8.90;100.00;98917.97;4940393;28;20168;-73
2023/11/01 01:10:37;;;;;;;0.10;0.10;;;;;;;8.92;100.00;98919.31;4941085;28;19926;-73
2023/11/01 01:13:03;;;;;;;0.10;0.10;;;;;;;8.91;100.00;98919.59;4942905;28;20074;-73
2023/11/01 01:15:29;;;;;;;0.10;0.10;;;;;;;8.89;100.00;98916.34;4942377;28;20055;-71
2023/11/01 01:17:55;;;;;;;0.10;0.10;;;;;;;8.88;100.00;98903.81;4924345;28;20142;-71
2023/11/01 01:20:22;;;;;;;0.10;0.10;;;;;;;8.88;100.00;98898.34;4926656;28;20434;-72
2023/11/01 01:22:49;;;;;;;0.10;0.10;;;;;;;8.88;100.00;98904.59;4939100;28;20058;-71
2023/11/01 01:25:15;;;;;;;;;;;;;;;8.92;100.00;98911.13;4939726;28;20438;-72
2023/11/01 01:27:41;;;;;;;0.10;0.10;;;;;;;8.91;100.00;98893.16;4926115;28;20036;-71
2023/11/01 01:30:08;;;;;;;0.10;0.10;;;;;;;9.00;100.00;98901.53;4921830;29;20051;-71
2023/11/01 01:32:34;;;;;;;0.00;0.00;;;;;;;9.07;100.00;98903.94;4939485;28;20055;-72
2023/11/01 01:35:01;;;;;;;0.10;0.10;;;;;;;9.08;100.00;98897.38;4939948;28;20051;-72
2023/11/01 01:37:29;;;;;;;0.10;0.10;;;;;;;9.11;100.00;98895.97;4939446;28;20516;-71
2023/11/01 01:39:57;;;;;;;0.10;0.10;;;;;;;9.13;100.00;98889.13;4938573;28;20051;-72
2023/11/01 01:42:24;;;;;;;0.10;0.10;;;;;;;9.14;100.00;98892.69;4938027;29;20052;-72
2023/11/01 01:44:50;;;;;;;0.10;0.10;;;;;;;9.16;100.00;98893.19;4943317;28;20185;-72
2023/11/01 01:47:17;;;;;;;0.10;0.10;;;;;;;9.18;100.00;98880.88;4939716;29;20176;-72
2023/11/01 01:49:43;;;;;;;0.10;0.10;;;;;;;9.22;100.00;98884.69;4982635;28;20420;-72
2023/11/01 01:52:10;;;;;;;0.10;0.10;;;;;;;9.28;100.00;98885.41;4916472;28;20084;-72
2023/11/01 01:54:36;;;;;;;0.10;0.10;;;;;;;9.33;100.00;98885.38;4939915;28;20109;-73
2023/11/01 01:57:04;;;;;;;0.10;0.10;;;;;;;9.40;100.00;98871.41;4938352;29;20113;-72
2023/11/01 01:59:30;;;;;;;0.10;0.10;;;;;;;9.44;100.00;98864.25;4919820;29;20082;-72
2023/11/01 02:01:57;;;;;;;0.10;0.10;;;;;;;9.47;100.00;98865.59;4940643;28;20066;-74
2023/11/01 02:04:23;;;;;;;0.10;0.10;;;;;;;9.55;100.00;98866.88;4941320;28;20047;-74
2023/11/01 02:06:49;;;;;;;0.10;0.10;;;;;;;9.59;100.00;98857.00;4938383;28;20051;-73
2023/11/01 02:09:15;;;;;;;0.10;0.10;;;;;;;9.61;100.00;98854.78;4938656;28;20517;-74
2023/11/01 02:11:42;;;;;;;0.10;0.10;;;;;;;9.64;100.00;98859.66;4938192;28;20047;-75
2023/11/01 02:14:10;;;;;;;0.10;0.10;;;;;;;9.68;100.00;98852.53;4939561;28;20437;-73
2023/11/01 02:16:36;;;;;;;0.10;0.10;;;;;;;9.73;100.00;98863.38;4939194;28;20808;-73
2023/11/01 02:19:03;;;;;;;0.10;0.10;;;;;;;9.76;100.00;98862.78;4938342;28;20109;-73
2023/11/01 02:21:30;;;;;;;0.10;0.10;;;;;;;9.80;100.00;98860.28;4939316;28;20074;-73
2023/11/01 02:23:58;;;;;;;0.10;0.10;;;;;;;9.83;100.00;98847.97;4940444;28;20541;-74
2023/11/01 02:26:25;;;;;;;0.20;0.20;;;;;;;9.86;100.00;98850.91;4941285;28;20541;-73
2023/11/01 02:28:51;;;;;;;0.10;0.10;;;;;;;9.89;100.00;98844.06;4939338;28;20055;-73
2023/11/01 02:31:18;;;;;;;0.10;0.10;;;;;;;9.91;100.00;98841.84;4938737;28;20178;-73
2023/11/01 02:33:44;;;;;;;0.10;0.10;;;;;;;9.91;100.00;98847.31;4940492;28;20083;-73
2023/11/01 02:36:10;;;;;;;0.10;0.10;;;;;;;9.89;100.00;98846.81;4924597;29;20054;-74
2023/11/01 02:38:36;;;;;;;0.10;0.10;;;;;;;9.92;100.00;98846.22;4921876;29;20055;-74
2023/11/01 02:41:04;;;;;;;0.10;0.10;;;;;;;9.94;100.00;98846.72;4953242;28;20070;-74
2023/11/01 02:43:30;;;;;;;0.10;0.10;;;;;;;9.95;100.00;98842.88;4940302;29;20070;-73
2023/11/01 02:45:56;;;;;;;0.10;0.10;;;;;;;9.95;100.00;98850.28;4939106;28;20514;-73
2023/11/01 02:48:23;;;;;;;0.10;0.10;;;;;;;9.96;100.00;98838.25;4941469;28;20051;-74
2023/11/01 02:50:49;;;;;;;0.10;0.10;;;;;;;9.94;100.00;98835.81;4943084;28;20054;-74
2023/11/01 02:53:15;;;;;;;0.10;0.10;;;;;;;9.94;100.00;98838.53;4946432;28;20052;-71
2023/11/01 02:55:41;;;;;;;0.10;0.10;;;;;;;9.90;100.00;98840.22;4942965;28;20062;-72
2023/11/01 02:58:09;;;;;;;0.10;0.10;;;;;;;9.86;100.00;98837.28;4944833;28;20344;-72
2023/11/01 03:00:35;;;;;;;0.10;0.10;;;;;;;9.84;100.00;98838.69;4943248;28;20065;-69
2023/11/01 03:03:02;;;;;;;0.10;0.10;;;;;;;9.80;100.00;98835.72;4951146;28;20055;-72
2023/11/01 03:05:28;;;;;;;0.10;0.10;;;;;;;9.81;100.00;98839.25;4942464;28;20043;-73
2023/11/01 03:07:54;;;;;;;0.10;0.10;;;;;;;9.80;100.00;98843.91;4909910;28;20452;-73
2023/11/01 03:10:21;;;;;;;0.10;0.10;;;;;;;9.81;100.00;98839.25;4943903;28;20039;-74
2023/11/01 03:12:47;;;;;;;0.10;0.10;;;;;;;9.77;100.00;98839.03;4942932;28;20062;-74
2023/11/01 03:15:15;;;;;;;0.10;0.10;;;;;;;9.72;100.00;98837.19;4941594;28;20063;-74
2023/11/01 03:17:42;;;;;;;;;;;;;;;9.67;100.00;98839.97;4941851;28;20051;-73
2023/11/01 03:20:10;;;;;;;0.20;0.20;;;;;;;9.57;100.00;98830.00;4942598;28;19926;-73
2023/11/01 03:22:37;;;;;;;0.10;0.10;;;;;;;9.59;100.00;98835.97;4941924;28;20051;-73
2023/11/01 03:25:04;;;;;;;0.10;0.10;;;;;;;9.54;100.00;98830.56;4941620;28;20058;-73
2023/11/01 03:27:34;;;;;;;0.10;0.10;;;;;;;9.54;100.00;98835.25;4942794;28;20055;-72
2023/11/01 03:30:00;;;;;;;0.13;0.13;;;;;;;9.56;100.00;98833.03;4943363;28;20051;-73
2023/11/01 03:32:28;;;;;;;0.10;0.10;;;;;;;9.58;100.00;98839.78;4944288;28;20199;-73
2023/11/01 03:34:54;;;;;;;0.10;0.10;;;;;;;9.60;100.00;98848.53;4942390;29;20051;-74
2023/11/01 03:37:21;;;;;;;0.10;0.10;;;;;;;9.63;100.00;98834.28;4938996;28;20528;-73
2023/11/01 03:39:47;;;;;;;0.10;0.10;;;;;;;9.66;100.00;98835.59;4924752;29;20040;-72
2023/11/01 03:42:13;;;;;;;0.10;0.10;;;;;;;9.64;100.00;98824.19;4943183;28;20763;-72
2023/11/01 03:44:39;;;;;;;0.10;0.10;;;;;;;9.60;100.00;98820.41;4945198;28;20593;-73
2023/11/01 03:47:05;;;;;;;0.10;0.10;;;;;;;9.57;100.00;98807.34;4943407;28;20920;-73
2023/11/01 03:49:33;;;;;;;0.10;0.10;;;;;;;9.51;100.00;98820.25;4955482;28;20514;-73
2023/11/01 03:52:00;;;;;;;;;;;;;;;9.49;100.00;98817.81;4944503;28;20410;-74
2023/11/01 03:54:26;;;;;;;0.10;0.10;;;;;;;9.48;100.00;98812.66;4942941;28;19930;-73
2023/11/01 03:56:52;;;;;;;0.10;0.10;;;;;;;9.49;100.00;98808.81;4941613;28;20189;-72
2023/11/01 03:59:19;;;;;;;0.10;0.10;;;;;;;9.46;100.00;98801.22;4928951;28;20093;-71
2023/11/01 04:01:45;;;;;;;0.20;0.20;;;;;;;9.44;100.00;98793.31;4940929;28;20594;-71
2023/11/01 04:04:12;;;;;;;0.10;0.10;;;;;;;9.40;100.00;98784.09;4947779;28;20145;-72
2023/11/01 04:06:39;;;;;;;0.10;0.10;;;;;;;9.37;100.00;98776.50;4943819;28;20104;-71
2023/11/01 04:09:06;;;;;;;;;;;;;;;9.32;100.00;98792.91;4942454;28;20051;-72
2023/11/01 04:11:32;;;;;;;0.10;0.10;;;;;;;9.28;100.00;98776.31;4938461;28;19927;-72
2023/11/01 04:13:59;;;;;;;0.10;0.10;;;;;;;9.27;100.00;98782.06;4942668;28;20062;-71
2023/11/01 04:16:25;;;;;;;0.10;0.10;;;;;;;9.31;100.00;98777.66;4957245;28;20047;-72
2023/11/01 04:18:51;;;;;;;0.10;0.10;;;;;;;9.28;100.00;98773.59;4940637;28;20035;-72
2023/11/01 04:21:18;;;;;;;0.10;0.10;;;;;;;9.22;100.00;98759.22;4942549;28;20055;-72
2023/11/01 04:23:46;;;;;;;0.20;0.20;;;;;;;9.32;100.00;98773.81;4941004;28;20047;-71
2023/11/01 04:26:12;;;;;;;;;;;;;;;9.39;100.00;98781.66;4943820;28;20051;-73
2023/11/01 04:28:38;;;;;;;0.10;0.10;;;;;;;9.44;100.00;98785.13;4956523;28;19946;-73
2023/11/01 04:31:04;;;;;;;0.10;0.10;;;;;;;9.44;100.00;98782.41;4942372;28;20146;-73
2023/11/01 04:33:31;;;;;;;0.10;0.10;;;;;;;9.49;100.00;98795.97;4940682;28;20518;-73
2023/11/01 04:35:58;;;;;;;0.10;0.10;;;;;;;9.53;100.00;98774.38;4942332;28;20160;-73
2023/11/01 04:38:24;;;;;;;0.10;0.10;;;;;;;9.55;100.00;98772.16;4925291;28;20078;-73
2023/11/01 04:40:53;;;;;;;0.10;0.10;;;;;;;9.60;100.00;98779.47;4941090;28;20085;-73
2023/11/01 04:43:20;;;;;;;0.10;0.10;;;;;;;9.67;100.00;98770.94;4955914;28;20055;-73
2023/11/01 04:45:46;;;;;;;0.10;0.10;;;;;;;9.68;100.00;98770.66;4942458;28;20154;-73
2023/11/01 04:48:13;;;;;;;0.10;0.10;;;;;;;9.72;100.00;98773.59;4927771;29;20058;-73
2023/11/01 04:50:39;;;;;;;0.10;0.10;;;;;;;9.75;100.00;98783.91;4944021;28;20047;-74
2023/11/01 04:53:05;;;;;;;0.10;0.10;;;;;;;9.78;100.00;98786.88;4941117;28;20101;-74
2023/11/01 04:55:32;;;;;;;0.10;0.10;;;;;;;9.84;100.00;98787.63;4941724;28;20506;-73
2023/11/01 04:57:59;;;;;;;0.10;0.10;;;;;;;9.87;100.00;98792.47;4940720;28;20055;-74
2023/11/01 05:00:25;;;;;;;0.10;0.10;;;;;;;9.89;100.00;98795.72;4942814;28;20047;-72
2023/11/01 05:02:52;;;;;;;0.10;0.10;;;;;;;9.95;100.00;98798.41;4941578;28;20047;-72
2023/11/01 05:05:18;;;;;;;0.10;0.10;;;;;;;9.99;100.00;98802.16;4941114;28;20051;-72
2023/11/01 05:07:44;;;;;;;0.10;0.10;;;;;;;10.03;100.00;98793.09;4941153;28;20090;-71
2023/11/01 05:10:11;;;;;;;0.10;0.10;;;;;;;10.08;100.00;98793.00;4942240;28;20092;-71
2023/11/01 05:12:37;;;;;;;0.10;0.10;;;;;;;10.17;100.00;98798.59;4939389;28;20128;-71
2023/11/01 05:15:06;;;;;;;0.20;0.20;;;;;;;10.27;100.00;98807.75;4943184;28;20089;-72
2023/11/01 05:17:33;;;;;;;0.10;0.10;;;;;;;10.40;100.00;98781.59;4942095;28;20055;-72
2023/11/01 05:20:00;;;;;;;0.13;0.13;;;;;;;10.48;100.00;98800.88;4936934;28;20421;-71
2023/11/01 05:22:26;;;;;;;0.20;0.20;;;;;;;10.47;100.00;98791.06;4940747;28;20075;-71
2023/11/01 05:24:52;;;;;;;0.10;0.10;;;;;;;10.65;99.21;98802.25;4939299;28;20067;-72
2023/11/01 05:27:19;;;;;;;0.15;0.15;;;;;;;10.72;98.51;98790.91;4941402;28;20058;-71
2023/11/01 05:29:46;;;;;;;;;;;;;;;10.73;98.35;98792.53;4935396;28;20062;-72
2023/11/01 05:32:14;;;;;;;0.10;0.10;;;;;;;10.72;97.79;98780.81;4938980;28;20152;-71
2023/11/01 05:34:40;;;;;;;;;;;;;;;10.90;97.45;98800.19;4936094;28;20062;-71
2023/11/01 05:37:09;;;;;;;0.20;0.20;;;;;;;10.91;96.77;98782.66;4941536;28;19933;-71
2023/11/01 05:39:36;;;;;;;0.20;0.20;;;;;;;10.83;96.74;98794.28;4937783;28;20098;-72
2023/11/01 05:42:03;;;;;;;0.20;0.20;;;;;;;10.81;97.03;98788.31;4924763;29;20074;-71
2023/11/01 05:44:30;;;;;;;0.20;0.20;;;;;;;10.76;97.39;98786.47;4941665;28;20051;-72
2023/11/01 05:46:58;;;;;;;0.20;0.20;;;;;;;10.74;97.63;98783.22;4942015;28;20303;-71
2023/11/01 05:49:26;;;;;;;0.20;0.20;;;;;;;10.76;97.73;98783.72;4942375;28;20048;-71
2023/11/01 05:51:53;;;;;;;0.10;0.10;;;;;;;10.83;97.67;98786.06;4935461;28;20596;-72
2023/11/01 05:54:19;;;;;;;;;;;;;;;10.85;97.29;98786.56;4933786;29;20518;-72
2023/11/01 05:56:46;;;;;;;0.10;0.10;;;;;;;10.84;96.95;98782.22;4940230;28;19933;-72
2023/11/01 05:59:12;;;;;;;0.17;0.17;;;;;;;10.85;96.93;98773.72;4942182;28;20054;-71
2023/11/01 06:01:39;;;;;;;0.20;0.20;;;;;;;10.96;96.72;98785.28;4938195;28;20397;-72
2023/11/01 06:04:06;;;;;;;0.20;0.20;;;;;;;11.08;96.01;98787.50;4937734;28;20046;-73
2023/11/01 06:06:34;;;;;;;0.20;0.20;;;;;;;11.17;95.16;98782.97;4947354;28;20169;-73
2023/11/01 06:09:00;;;;;;;0.20;0.20;;;;;;;11.23;94.94;98777.41;4937241;28;20557;-73
2023/11/01 06:11:26;;;;;;;0.20;0.20;;;;;;;11.28;94.26;98777.31;4941710;28;20063;-73
2023/11/01 06:14:03;;;;;;;0.20;0.20;;;;;;;11.34;93.93;98787.03;4936400;28;20043;-73
2023/11/01 06:16:45;;;;;;;0.20;0.20;;;;;;;11.45;93.63;98787.63;4941719;29;20055;-73
2023/11/01 06:19:17;;;;;;;0.20;0.20;;;;;;;11.55;92.74;98783.84;4935815;28;20043;-73
2023/11/01 06:22:10;;;;;;;0.20;0.20;;;;;;;11.62;91.94;98776.06;4938265;28;20073;-74
2023/11/01 06:24:40;;;;;;;0.20;0.20;;;;;;;11.73;91.00;98773.91;4939912;28;20604;-73
2023/11/01 06:27:14;;;;;;;0.20;0.20;;;;;;;11.81;90.53;98778.66;4940269;28;20043;-71
2023/11/01 06:29:43;;;;;;;0.20;0.20;;;;;;;11.86;90.33;98786.75;4923950;29;20039;-71
2023/11/01 06:32:12;;;;;;;0.20;0.20;;;;;;;11.86;89.79;98781.28;4938613;28;20470;-71
2023/11/01 06:34:38;;;;;;;0.20;0.20;;;;;;;11.88;89.67;98781.78;4939260;28;20043;-71
2023/11/01 06:37:05;;;;;;;0.20;0.20;;;;;;;11.79;90.00;98778.16;4940316;28;20116;-71
2023/11/01 06:39:32;;;;;;;0.20;0.20;;;;;;;11.88;89.74;98786.47;4941681;29;20050;-73
2023/11/01 06:41:58;;;;;;;0.20;0.20;;;;;;;11.92;89.23;98782.78;4939091;28;20047;-72
2023/11/01 06:44:25;;;;;;;0.13;0.13;;;;;;;11.95;89.16;98788.78;4940517;29;20055;-72
2023/11/01 06:46:52;;;;;;;0.13;0.13;;;;;;;11.94;88.80;98787.13;4939263;28;20585;-73
2023/11/01 06:49:19;;;;;;;0.20;0.20;;;;;;;11.93;88.82;98786.34;4955612;28;20043;-73
2023/11/01 06:51:46;;;;;;;0.20;0.20;;;;;;;11.92;88.51;98798.41;4942443;28;20082;-72
2023/11/01 06:54:13;;;;;;;0.20;0.20;;;;;;;11.89;88.64;98786.13;4927586;29;20043;-73
2023/11/01 06:56:45;;;;;;;0.20;0.20;;;;;;;11.92;88.74;98790.19;4939963;28;20051;-73
2023/11/01 06:59:12;;;;;;;0.20;0.20;;;;;;;11.97;88.60;98794.75;4900275;28;20541;-73
2023/11/01 07:01:38;;;;;;;0.20;0.20;;;;;;;12.03;88.12;98780.66;4936463;28;20047;-71
2023/11/01 07:04:06;;;;;;;0.20;0.20;;;;;;;12.12;87.02;98793.59;4941322;28;20046;-71
2023/11/01 07:06:32;;;;;;;0.20;0.20;;;;;;;12.11;86.82;98773.63;4910346;29;20477;-73
2023/11/01 07:08:59;;;;;;;0.20;0.20;;;;;;;12.27;85.87;98797.94;4938362;29;20047;-71
2023/11/01 07:11:25;;;;;;;0.20;0.20;;;;;;;12.40;85.51;98782.53;4940539;28;20306;-71
2023/11/01 07:13:53;;;;;;;0.20;0.20;;;;;;;12.45;84.73;98782.41;4937895;28;20553;-71
2023/11/01 07:16:19;;;;;;;0.20;0.20;;;;;;;12.49;84.50;98799.88;4940062;28;20097;-73
2023/11/01 07:18:46;;;;;;;0.20;0.20;;;;;;;12.53;84.12;98778.94;4938433;28;20055;-74
2023/11/01 07:21:12;;;;;;;0.20;0.20;;;;;;;12.59;83.86;98780.41;4939610;28;20055;-73
2023/11/01 07:23:39;;;;;;;0.20;0.20;;;;;;;12.61;83.65;98783.63;4941370;29;20675;-72
2023/11/01 07:26:05;;;;;;;0.30;0.30;;;;;;;12.61;83.87;98775.41;4920873;28;20048;-71
2023/11/01 07:28:31;;;;;;;0.20;0.20;;;;;;;12.66;83.02;98774.47;4939611;28;20055;-71
2023/11/01 07:30:59;;;;;;;0.20;0.20;;;;;;;12.74;82.84;98781.97;4939195;28;20462;-71
2023/11/01 07:33:25;;;;;;;0.30;0.30;;;;;;;12.79;82.27;98788.44;4940958;28;20054;-70
2023/11/01 07:35:52;;;;;;;0.20;0.20;;;;;;;12.85;81.79;98781.66;4929470;29;20051;-71
2023/11/01 07:38:18;;;;;;;0.20;0.20;;;;;;;12.98;81.35;98777.22;4941888;29;20039;-70
2023/11/01 07:40:45;;;;;;;0.30;0.30;;;;;;;13.05;81.02;98774.84;4943108;28;20043;-71
2023/11/01 07:43:11;;;;;;;0.20;0.20;;;;;;;13.21;80.25;98782.63;4940396;28;20062;-71
2023/11/01 07:45:37;;;;;;;0.20;0.20;;;;;;;13.36;79.50;98797.88;4943189;28;20048;-71
2023/11/01 07:48:05;;;;;;;0.30;0.30;;;;;;;13.37;79.69;98778.34;4943611;28;20101;-71
2023/11/01 07:50:32;;;;;;;0.20;0.20;;;;;;;13.59;78.74;98765.69;4940379;29;20079;-71
2023/11/01 07:52:59;;;;;;;0.30;0.30;;;;;;;13.63;78.04;98772.13;4940910;28;20532;-71
2023/11/01 07:55:26;;;;;;;0.20;0.20;;;;;;;13.77;77.49;98779.44;4944111;28;20109;-71
2023/11/01 07:57:53;;;;;;;0.30;0.30;;;;;;;13.90;76.69;98773.00;4932320;29;20540;-71
2023/11/01 08:00:19;;;;;;;0.30;0.30;;;;;;;14.03;76.65;98776.69;4926747;28;20429;-71
2023/11/01 08:02:46;;;;;;;0.20;0.20;;;;;;;14.07;75.89;98763.13;4940723;28;20452;-71
2023/11/01 08:05:14;;;;;;;0.30;0.30;;;;;;;14.45;74.56;98800.94;4942380;28;20384;-73
2023/11/01 08:07:40;;;;;;;0.30;0.30;;;;;;;14.80;72.30;98781.63;4940436;29;20559;-73
2023/11/01 08:10:07;;;;;;;0.20;0.20;;;;;;;14.55;73.10;98795.13;4946196;28;20506;-71
2023/11/01 08:12:34;;;;;;;0.30;0.30;;;;;;;14.44;73.67;98777.31;4941678;29;20514;-71
2023/11/01 08:15:00;;;;;;;0.30;0.30;;;;;;;14.45;73.65;98773.44;4942625;28;20055;-73
2023/11/01 08:17:26;;;;;;;0.20;0.20;;;;;;;14.46;73.57;98788.81;4942783;28;20138;-73
2023/11/01 08:19:53;;;;;;;0.25;0.25;;;;;;;14.34;74.00;98786.72;4939554;28;20059;-71
2023/11/01 08:22:20;;;;;;;0.30;0.30;;;;;;;14.35;74.01;98779.25;4941562;28;20074;-71
2023/11/01 08:24:47;;;;;;;0.30;0.30;;;;;;;14.54;73.53;98773.44;4922650;29;20058;-71
2023/11/01 08:27:13;;;;;;;0.30;0.30;;;;;;;14.62;72.97;98780.88;4942193;29;20461;-71
2023/11/01 08:29:42;;;;;;;0.30;0.30;;;;;;;14.64;72.88;98777.78;4943192;28;20142;-73
2023/11/01 08:32:08;;;;;;;0.30;0.30;;;;;;;14.65;73.26;98774.69;4940606;28;20746;-73
2023/11/01 08:34:35;;;;;;;0.30;0.30;;;;;;;14.83;72.54;98769.19;4932036;28;20093;-72
2023/11/01 08:37:02;;;;;;;0.30;0.30;;;;;;;15.00;71.77;98763.63;4945784;28;20047;-74
2023/11/01 08:39:30;;;;;;;0.40;0.40;;;;;;;15.19;70.76;98764.34;4940262;29;20043;-73
2023/11/01 08:41:56;;;;;;;0.30;0.30;;;;;;;15.61;68.46;98775.47;4939324;28;20134;-71
2023/11/01 08:44:22;;;;;;;0.30;0.30;;;;;;;15.60;68.59;98768.31;4948571;28;20039;-71
2023/11/01 08:46:49;;;;;;;0.30;0.30;;;;;;;15.52;68.45;98761.72;4939988;28;20056;-73
2023/11/01 08:49:15;;;;;;;0.20;0.20;;;;;;;15.53;68.50;98765.31;4940410;28;20051;-74
2023/11/01 08:51:41;;;;;;;0.30;0.30;;;;;;;15.14;70.24;98768.91;4940575;28;20048;-73
2023/11/01 08:54:09;;;;;;;0.20;0.20;;;;;;;14.91;71.14;98765.59;4950340;28;20050;-74
2023/11/01 08:56:37;;;;;;;0.20;0.20;;;;;;;14.70;71.99;98776.47;4941922;28;20365;-73
2023/11/01 08:59:04;;;;;;;0.30;0.30;;;;;;;14.64;72.47;98769.50;4938169;29;20051;-73
2023/11/01 09:01:30;;;;;;;0.20;0.20;;;;;;;14.96;71.13;98764.59;4938002;29;20113;-72
2023/11/01 09:03:56;;;;;;;0.30;0.30;;;;;;;14.84;71.62;98765.28;4935270;28;20032;-74
2023/11/01 09:06:23;;;;;;;0.30;0.30;;;;;;;14.90;71.39;98758.47;4922612;28;20087;-74
2023/11/01 09:08:49;;;;;;;0.30;0.30;;;;;;;14.93;71.20;98751.50;4936754;29;20039;-73
2023/11/01 09:11:15;;;;;;;0.25;0.25;;;;;;;15.16;70.21;98738.28;4943826;28;20055;-73
2023/11/01 09:13:43;;;;;;;0.30;0.30;;;;;;;15.22;70.42;98741.66;4942315;28;20063;-74
2023/11/01 09:16:10;;;;;;;0.40;0.40;;;;;;;15.87;67.83;98724.88;4940855;28;20051;-74
2023/11/01 09:18:36;;;;;;;0.40;0.40;;;;;;;16.57;64.92;98732.53;4936731;29;20039;-73
2023/11/01 09:21:02;;;;;;;0.40;0.40;;;;;;;17.18;62.62;98738.50;4941055;28;20056;-71
2023/11/01 09:23:29;;;;;;;0.40;0.40;;;;;;;17.58;60.41;98725.91;4938269;28;20051;-71
2023/11/01 09:25:55;;;;;;;0.50;0.50;;;;;;;18.18;58.82;98730.03;4938420;28;20514;-71
2023/11/01 09:28:21;;;;;;;0.40;0.40;;;;;;;18.65;57.18;98731.31;4940417;28;20055;-72
2023/11/01 09:30:49;;;;;;;0.57;0.57;;;;;;;18.96;55.60;98722.19;4941807;28;20050;-74
2023/11/01 09:33:16;;;;;;;0.60;0.60;;;;;;;19.19;54.68;98720.78;4939585;28;20047;-73
2023/11/01 09:35:42;;;;;;;0.60;0.60;;;;;;;19.21;54.08;98712.94;4942928;28;20055;-73
2023/11/01 09:38:08;;;;;;;0.60;0.60;;;;;;;18.87;54.97;98724.34;4939115;28;20612;-73
2023/11/01 09:40:35;;;;;;;0.70;0.70;;;;;;;19.21;54.09;98715.72;4938199;28;20053;-73
2023/11/01 09:43:01;;;;;;;0.60;0.60;;;;;;;19.55;52.77;98730.72;4941847;28;20039;-74
2023/11/01 09:45:28;;;;;;;0.70;0.70;;;;;;;19.21;53.59;98718.47;4940761;28;20055;-74
2023/11/01 09:47:56;;;;;;;;;;;;;;;18.97;54.12;98728.53;4942822;28;20449;-73
2023/11/01 09:50:22;;;;;;;0.70;0.70;;;;;;;19.29;53.80;98709.16;4934359;28;19927;-74
2023/11/01 09:52:49;;;;;;;0.70;0.70;;;;;;;19.70;52.49;98703.31;4940564;28;20051;-73
2023/11/01 09:55:15;;;;;;;0.70;0.70;;;;;;;20.10;51.72;98704.97;4926869;28;20054;-74
2023/11/01 09:57:43;;;;;;;0.70;0.70;;;;;;;20.76;50.37;98698.66;4937877;28;20616;-73
2023/11/01 10:00:13;;;;;;;0.80;0.80;;;;;;;20.91;49.50;98705.28;4938058;28;20055;-74
2023/11/01 10:02:39;;;;;;;0.80;0.80;;;;;;;21.20;48.63;98693.81;4937904;28;20150;-72
2023/11/01 10:05:08;;;;;;;0.80;0.80;;;;;;;21.37;47.57;98695.25;4932027;28;20055;-72
2023/11/01 10:07:34;;;;;;;0.80;0.80;;;;;;;21.39;47.95;98684.56;4923373;28;20529;-73
2023/11/01 10:10:03;;;;;;;0.80;0.80;;;;;;;21.51;46.95;98684.34;4939317;29;20043;-73
2023/11/01 10:12:30;;;;;;;0.80;0.80;;;;;;;21.73;46.76;98681.06;4922770;28;20341;-73
2023/11/01 10:14:58;;;;;;;0.90;0.90;;;;;;;21.72;46.41;98674.69;4930213;28;20055;-73
2023/11/01 10:17:25;;;;;;;0.90;0.90;;;;;;;21.80;46.56;98670.03;4939907;29;20518;-72
2023/11/01 10:19:51;;;;;;;;;;;;;;;21.68;46.70;98666.31;4936995;29;20058;-73
2023/11/01 10:22:19;;;;;;;0.90;0.90;;;;;;;21.83;46.23;98662.91;4937385;28;19930;-74
2023/11/01 10:24:46;;;;;;;0.90;0.90;;;;;;;21.82;46.24;98662.09;4937912;28;20047;-72
2023/11/01 10:27:12;;;;;;;0.90;0.90;;;;;;;22.22;45.55;98648.63;4938694;28;20044;-72
2023/11/01 10:29:43;;;;;;;1.00;1.00;;;;;;;22.78;43.90;98649.56;4937740;29;20054;-72
2023/11/01 10:32:10;;;;;;;0.90;0.90;;;;;;;22.77;43.94;98641.63;4919698;28;20130;-73
2023/11/01 10:34:37;;;;;;;0.90;0.90;;;;;;;23.26;43.26;98642.41;4939106;28;20039;-72
2023/11/01 10:37:08;;;;;;;1.00;1.00;;;;;;;23.87;42.03;98655.03;4935535;29;20215;-72
2023/11/01 10:39:43;;;;;;;0.90;0.90;;;;;;;23.79;41.35;98652.19;4938934;28;20043;-72
2023/11/01 10:42:11;;;;;;;1.00;1.00;;;;;;;23.56;42.16;98648.91;4941557;28;20486;-72
2023/11/01 10:44:38;;;;;;;0.93;0.93;;;;;;;23.53;41.93;98652.50;4911217;28;20062;-75
2023/11/01 10:47:07;;;;;;;0.90;0.90;;;;;;;23.47;41.80;98652.06;4938567;28;20054;-72
2023/11/01 10:49:34;;;;;;;0.90;0.90;;;;;;;22.96;42.59;98646.16;4934245;28;20051;-72
2023/11/01 10:52:02;;;;;;;0.90;0.90;;;;;;;22.79;43.09;98642.03;4932893;29;20101;-73
2023/11/01 10:54:30;;;;;;;1.00;1.00;;;;;;;22.71;42.83;98643.97;4925046;29;20054;-73
2023/11/01 10:57:00;;;;;;;0.98;0.98;;;;;;;22.70;43.22;98638.75;4923035;29;20047;-74
2023/11/01 10:59:34;;;;;;;0.98;0.98;;;;;;;23.02;42.35;98652.13;4937138;28;20083;-74
2023/11/01 11:02:10;;;;;;;1.00;1.00;;;;;;;22.62;42.98;98638.72;4942615;28;20047;-73
2023/11/01 11:04:43;;;;;;;1.00;1.00;;;;;;;22.91;42.63;98646.50;4936457;28;20070;-74
2023/11/01 11:07:23;;;;;;;0.98;0.98;;;;;;;23.13;42.22;98633.50;4930297;28;20066;-74
2023/11/01 11:10:23;;;;;;;1.00;1.00;;;;;;;23.16;41.27;98631.94;4936316;28;20540;-73
2023/11/01 11:13:25;;;;;;;1.00;1.00;;;;;;;23.21;41.57;98628.78;4940310;28;20142;-74
2023/11/01 11:18:24;;;;;;;0.90;0.90;;;;;;;22.73;42.68;98627.66;4942742;29;20059;-73
2023/11/01 11:20:51;;;;;;;0.90;0.90;;;;;;;22.78;42.40;98638.44;4942765;28;20043;-74
2023/11/01 11:23:20;;;;;;;1.00;1.00;;;;;;;22.36;43.09;98632.06;4939587;28;20055;-73
2023/11/01 11:25:51;;;;;;;1.10;1.10;;;;;;;22.24;43.15;98622.03;4927600;29;20043;-73
2023/11/01 11:28:43;;;;;;;1.00;1.00;;;;;;;22.42;42.68;98620.59;4941445;29;20421;-73
2023/11/01 11:31:15;;;;;;;1.00;1.00;;;;;;;22.88;42.04;98633.34;4939434;28;20589;-74
2023/11/01 11:34:09;;;;;;;1.00;1.00;;;;;;;23.21;41.07;98631.56;4941811;28;20578;-73
2023/11/01 11:36:35;;;;;;;0.93;0.93;;;;;;;22.89;41.49;98627.38;4938410;29;20840;-74
2023/11/01 11:39:05;;;;;;;1.00;1.00;;;;;;;22.60;42.28;98624.38;4938928;28;20407;-74
2023/11/01 11:41:47;;;;;;;1.00;1.00;;;;;;;22.82;42.16;98632.88;4941574;28;20544;-72